Time;durP1;ratioP1;P1;durP2;ratioP2;P2;SDS_P1;SDS_P2;PMS_P1;PMS_P2;Temp;Humidity;BMP_temperature;BMP_pressure;BME280_temperature;BME280_humidity;BME280_pressure;Samples;Min_cycle;Max_cycle;Signal;HPM_P1;HPM_P2
2023/01/10 00:02:00;;;;;;;8.68;1.60;;;5.30;99.90;;;;;;5100082;28;20406;-77
2023/01/10 00:04:26;;;;;;;10.00;1.70;;;5.20;99.90;;;;;;5097870;28;20798;-77
2023/01/10 00:06:52;;;;;;;9.73;1.70;;;5.20;99.90;;;;;;5106776;28;20445;-77
2023/01/10 00:09:17;;;;;;;13.20;2.10;;;5.20;99.90;;;;;;5110110;28;20435;-77
2023/01/10 00:14:28;;;;;;;9.67;1.43;;;5.10;99.90;;;;;;5090343;28;20441;-77
2023/01/10 00:16:54;;;;;;;14.50;2.03;;;5.10;99.90;;;;;;5091080;28;20794;-77
2023/01/10 00:19:20;;;;;;;13.25;2.10;;;5.10;99.90;;;;;;5091084;28;20410;-77
2023/01/10 00:21:46;;;;;;;13.55;1.92;;;5.00;99.90;;;;;;5092449;28;20398;-77
2023/01/10 00:24:22;;;;;;;10.47;1.70;;;5.00;99.90;;;;;;5089079;28;20429;-77
2023/01/10 00:26:52;;;;;;;13.20;2.00;;;4.90;99.90;;;;;;5092578;28;20824;-77
2023/01/10 00:29:19;;;;;;;12.05;1.90;;;4.80;99.90;;;;;;5090776;28;20409;-77
2023/01/10 00:31:45;;;;;;;13.70;2.00;;;4.80;99.90;;;;;;5093663;28;20402;-77
2023/01/10 00:34:10;;;;;;;9.07;1.42;;;4.80;99.90;;;;;;5093861;28;20401;-77
2023/01/10 00:36:36;;;;;;;14.43;1.95;;;4.70;99.90;;;;;;5090981;28;20410;-77
2023/01/10 00:39:03;;;;;;;11.33;1.97;;;4.70;99.90;;;;;;5094483;28;20412;-77
2023/01/10 00:44:13;;;;;;;13.23;1.90;;;4.70;99.90;;;;;;5095062;28;20893;-78
2023/01/10 00:46:38;;;;;;;13.45;2.33;;;4.70;99.90;;;;;;5093159;28;20405;-78
2023/01/10 00:49:07;;;;;;;13.53;2.30;;;4.70;99.90;;;;;;5091865;28;20409;-78
2023/01/10 00:51:33;;;;;;;13.60;2.20;;;4.80;99.90;;;;;;5089394;28;20390;-78
2023/01/10 00:53:59;;;;;;;12.60;2.38;;;4.80;99.90;;;;;;5088477;28;20421;-77
2023/01/10 00:56:25;;;;;;;13.73;2.40;;;4.80;99.90;;;;;;5090430;28;20410;-77
2023/01/10 00:58:50;;;;;;;14.20;2.20;;;4.80;99.90;;;;;;5088472;28;20486;-77
2023/01/10 01:01:16;;;;;;;15.70;2.50;;;4.90;99.90;;;;;;5094359;28;20394;-77
2023/01/10 01:03:42;;;;;;;13.80;2.30;;;4.90;99.90;;;;;;5098218;28;20918;-78
2023/01/10 01:06:08;;;;;;;13.23;2.70;;;4.90;99.90;;;;;;5092989;28;20417;-78
2023/01/10 01:08:34;;;;;;;17.25;2.90;;;4.80;99.90;;;;;;5097129;28;20400;-78
2023/01/10 01:10:59;;;;;;;14.68;2.75;;;4.80;99.90;;;;;;5093380;28;20390;-78
2023/01/10 01:13:25;;;;;;;13.03;2.47;;;4.80;99.90;;;;;;5094556;28;20433;-77
2023/01/10 01:15:50;;;;;;;15.97;2.67;;;4.80;99.90;;;;;;5093365;28;20410;-78
2023/01/10 01:18:19;;;;;;;15.80;3.00;;;4.80;99.90;;;;;;5097049;28;20404;-78
2023/01/10 01:20:45;;;;;;;14.98;2.28;;;4.80;99.90;;;;;;5094841;28;20402;-78
2023/01/10 01:23:12;;;;;;;18.30;3.08;;;4.80;99.90;;;;;;5089671;28;20894;-78
2023/01/10 01:25:38;;;;;;;15.47;2.30;;;4.70;99.90;;;;;;5094662;28;20912;-78
2023/01/10 01:28:04;;;;;;;16.07;2.63;;;4.80;99.90;;;;;;5097410;28;20399;-77
2023/01/10 01:30:29;;;;;;;14.00;2.50;;;4.70;99.90;;;;;;5093595;28;20405;-78
2023/01/10 01:32:55;;;;;;;19.88;2.83;;;4.70;99.90;;;;;;5100651;28;20392;-78
2023/01/10 01:35:21;;;;;;;19.65;2.38;;;4.70;99.90;;;;;;5093805;28;21071;-78
2023/01/10 01:37:47;;;;;;;18.63;2.30;;;4.80;99.90;;;;;;5094714;28;20402;-78
2023/01/10 01:40:19;;;;;;;19.03;2.47;;;4.80;99.90;;;;;;5095205;28;20398;-78
2023/01/10 01:42:45;;;;;;;16.87;2.87;;;4.80;99.90;;;;;;5089522;28;20411;-78
2023/01/10 01:45:23;;;;;;;16.63;2.47;;;4.80;99.90;;;;;;5093091;28;20912;-78
2023/01/10 01:47:51;;;;;;;18.33;2.80;;;4.80;99.90;;;;;;5097491;28;20491;-78
2023/01/10 01:50:23;;;;;;;22.05;3.42;;;4.70;99.90;;;;;;5093633;28;20955;-77
2023/01/10 01:52:56;;;;;;;18.80;3.15;;;4.70;99.90;;;;;;5088375;28;20410;-78
2023/01/10 01:55:26;;;;;;;16.50;2.53;;;4.70;99.90;;;;;;5088071;28;20417;-78
2023/01/10 01:57:54;;;;;;;15.65;2.35;;;4.70;99.90;;;;;;5089243;28;20926;-78
2023/01/10 02:00:20;;;;;;;17.23;2.50;;;4.70;99.90;;;;;;5089218;28;20401;-78
2023/01/10 02:02:50;;;;;;;18.17;2.37;;;4.60;99.90;;;;;;5088415;28;20409;-77
2023/01/10 02:05:17;;;;;;;17.38;2.40;;;4.60;99.90;;;;;;5088707;28;20434;-78
2023/01/10 02:07:47;;;;;;;18.45;3.03;;;4.60;99.90;;;;;;5090800;28;20540;-78
2023/01/10 02:10:39;;;;;;;17.02;2.38;;;4.60;99.90;;;;;;5089028;28;20406;-78
2023/01/10 02:13:07;;;;;;;15.37;2.87;;;4.60;99.90;;;;;;5075616;28;20408;-78
2023/01/10 02:15:33;;;;;;;15.07;2.45;;;4.60;99.90;;;;;;5089372;28;20478;-78
2023/01/10 02:18:00;;;;;;;13.70;2.50;;;4.60;99.90;;;;;;5088927;28;20919;-78
2023/01/10 02:20:29;;;;;;;16.60;2.33;;;4.70;99.90;;;;;;5070979;28;20405;-78
2023/01/10 02:23:14;;;;;;;18.38;2.97;;;4.80;99.90;;;;;;5087712;28;20406;-78
2023/01/10 02:26:33;;;;;;;15.88;2.47;;;4.90;99.90;;;;;;5088827;28;20492;-78
2023/01/10 02:29:26;;;;;;;15.17;2.63;;;4.90;99.90;;;;;;5056995;28;20537;-78
2023/01/10 02:32:11;;;;;;;17.58;2.97;;;5.00;99.90;;;;;;5078933;28;20414;-78
2023/01/10 02:35:02;;;;;;;19.60;2.90;;;5.00;99.90;;;;;;5085547;28;20946;-78
2023/01/10 02:37:42;;;;;;;20.95;3.13;;;5.00;99.90;;;;;;5087962;28;20772;-78
2023/01/10 02:40:27;;;;;;;19.73;3.35;;;5.00;99.90;;;;;;5088073;28;20418;-78
2023/01/10 02:43:02;;;;;;;17.83;2.58;;;5.00;99.90;;;;;;5086557;28;20438;-78
2023/01/10 02:45:33;;;;;;;22.80;2.80;;;5.00;99.90;;;;;;5100089;28;20446;-78
2023/01/10 02:47:59;;;;;;;17.65;2.90;;;5.00;99.90;;;;;;5097257;28;20405;-78
2023/01/10 02:50:43;;;;;;;18.02;2.95;;;5.00;99.90;;;;;;5087826;28;20827;-78
2023/01/10 02:53:33;;;;;;;17.63;3.03;;;5.00;99.90;;;;;;5085908;28;20449;-78
2023/01/10 02:56:34;;;;;;;19.50;2.65;;;4.90;99.90;;;;;;5084235;28;20418;-78
2023/01/10 02:59:30;;;;;;;17.10;2.78;;;4.90;99.90;;;;;;5087689;28;20772;-78
2023/01/10 03:02:20;;;;;;;20.23;3.00;;;4.90;99.90;;;;;;5088001;28;20932;-78
2023/01/10 03:05:01;;;;;;;17.75;3.30;;;4.90;99.90;;;;;;5088355;28;20426;-78
2023/01/10 03:07:45;;;;;;;15.23;3.13;;;4.90;99.90;;;;;;5088374;28;20934;-78
2023/01/10 03:10:41;;;;;;;22.13;3.60;;;4.90;99.90;;;;;;5086147;28;20935;-78
2023/01/10 03:13:33;;;;;;;20.70;3.60;;;4.90;99.90;;;;;;5068897;28;20414;-78
2023/01/10 03:16:01;;;;;;;21.33;3.07;;;4.90;99.90;;;;;;5074889;28;20464;-78
2023/01/10 03:18:35;;;;;;;17.13;3.20;;;4.90;99.90;;;;;;5088824;28;20963;-78
2023/01/10 03:21:04;;;;;;;17.27;2.67;;;4.90;99.90;;;;;;5089040;28;20898;-78
2023/01/10 03:23:32;;;;;;;16.42;2.60;;;4.90;99.90;;;;;;5088648;28;20410;-78
2023/01/10 03:25:59;;;;;;;18.07;2.60;;;4.90;99.90;;;;;;5086612;28;20417;-78
2023/01/10 03:28:40;;;;;;;17.07;2.93;;;4.90;99.90;;;;;;5086893;28;20421;-78
2023/01/10 03:31:36;;;;;;;18.98;3.40;;;5.00;99.90;;;;;;5086810;28;20406;-78
2023/01/10 03:34:03;;;;;;;19.40;2.95;;;5.10;99.90;;;;;;5087658;28;20425;-78
2023/01/10 03:36:57;;;;;;;16.92;3.10;;;5.10;99.90;;;;;;5088004;28;20398;-78
2023/01/10 03:39:49;;;;;;;22.60;2.90;;;5.30;99.90;;;;;;5075093;28;20421;-78
2023/01/10 03:45:39;;;;;;;15.77;2.37;;;5.40;99.90;;;;;;5095196;28;20497;-78
2023/01/10 03:48:06;;;;;;;15.40;2.63;;;5.50;99.90;;;;;;5092760;28;20922;-78
2023/01/10 03:50:32;;;;;;;23.98;4.03;;;5.50;99.90;;;;;;5094410;28;20426;-78
2023/01/10 03:52:58;;;;;;;16.10;2.80;;;5.50;99.90;;;;;;5094852;28;20413;-78
2023/01/10 03:55:27;;;;;;;17.65;3.15;;;5.50;99.90;;;;;;5096716;28;20447;-78
2023/01/10 03:57:53;;;;;;;18.30;2.53;;;5.50;99.90;;;;;;5094382;28;20410;-78
2023/01/10 04:00:20;;;;;;;19.10;2.70;;;5.40;99.90;;;;;;5090875;28;20409;-78
2023/01/10 04:02:45;;;;;;;16.55;2.97;;;5.40;99.90;;;;;;5089989;28;20417;-78
2023/01/10 04:05:11;;;;;;;14.77;2.70;;;5.30;99.90;;;;;;5088465;28;20433;-78
2023/01/10 04:07:37;;;;;;;16.17;3.28;;;5.30;99.90;;;;;;5091636;28;20401;-78
2023/01/10 04:10:04;;;;;;;18.97;3.20;;;5.30;99.90;;;;;;5088677;28;20748;-78
2023/01/10 04:12:30;;;;;;;20.20;2.75;;;5.30;99.90;;;;;;5091521;28;20402;-78
2023/01/10 04:14:55;;;;;;;15.30;2.63;;;5.30;99.90;;;;;;5093355;28;20958;-78
2023/01/10 04:17:21;;;;;;;16.67;2.70;;;5.30;99.90;;;;;;5091578;28;20436;-78
2023/01/10 04:19:46;;;;;;;16.27;2.67;;;5.30;99.90;;;;;;5092704;28;20401;-78
2023/01/10 04:22:12;;;;;;;21.63;2.95;;;5.30;99.90;;;;;;5091138;28;20493;-78
2023/01/10 04:24:39;;;;;;;11.90;2.43;;;5.30;99.90;;;;;;5090380;28;20434;-78
2023/01/10 04:27:06;;;;;;;14.57;2.65;;;5.30;99.90;;;;;;5089573;28;20412;-78
2023/01/10 04:29:31;;;;;;;16.05;2.42;;;5.30;99.90;;;;;;5073345;28;21547;-78
2023/01/10 04:31:57;;;;;;;15.95;2.45;;;5.30;99.90;;;;;;5090060;28;20437;-78
2023/01/10 04:34:23;;;;;;;15.17;2.50;;;5.30;99.90;;;;;;5089802;28;20402;-78
2023/01/10 04:36:49;;;;;;;17.75;3.58;;;5.20;99.90;;;;;;5089378;28;20410;-78
2023/01/10 04:39:15;;;;;;;15.27;3.08;;;5.20;99.90;;;;;;5072376;28;20413;-78
2023/01/10 04:41:41;;;;;;;14.57;2.58;;;5.20;99.90;;;;;;5090744;28;20451;-78
2023/01/10 04:44:07;;;;;;;20.27;2.80;;;5.20;99.90;;;;;;5090551;28;20434;-78
2023/01/10 04:46:33;;;;;;;18.45;2.97;;;5.20;99.90;;;;;;5090178;28;20445;-78
2023/01/10 04:48:58;;;;;;;22.67;2.73;;;5.20;99.90;;;;;;5090244;28;20760;-78
2023/01/10 04:51:25;;;;;;;17.77;3.05;;;5.20;99.90;;;;;;5090392;28;20926;-78
2023/01/10 04:53:51;;;;;;;18.60;3.35;;;5.20;99.90;;;;;;5088855;28;20966;-78
2023/01/10 04:56:18;;;;;;;22.05;3.50;;;5.20;99.90;;;;;;5104825;28;20402;-78
2023/01/10 04:58:44;;;;;;;18.23;2.80;;;5.20;99.90;;;;;;5088718;28;20409;-78
2023/01/10 05:01:15;;;;;;;22.45;3.15;;;5.20;99.90;;;;;;5088097;28;20418;-78
2023/01/10 05:03:41;;;;;;;21.33;2.70;;;5.10;99.90;;;;;;5088369;28;20452;-78
2023/01/10 05:06:07;;;;;;;19.00;3.13;;;5.10;99.90;;;;;;5072361;28;20434;-78
2023/01/10 05:08:33;;;;;;;16.85;2.78;;;5.10;99.90;;;;;;5089434;28;20413;-78
2023/01/10 05:10:59;;;;;;;19.35;3.60;;;5.10;99.90;;;;;;5089208;28;20402;-78
2023/01/10 05:13:25;;;;;;;19.38;2.90;;;5.10;99.90;;;;;;5090432;28;20408;-78
2023/01/10 05:15:55;;;;;;;19.17;3.22;;;5.10;99.90;;;;;;5089602;28;20406;-78
2023/01/10 05:18:21;;;;;;;20.55;3.00;;;5.10;99.90;;;;;;5088387;28;20962;-78
2023/01/10 05:20:47;;;;;;;20.30;3.03;;;5.20;99.90;;;;;;5086738;28;20429;-78
2023/01/10 05:23:12;;;;;;;17.40;3.03;;;5.30;99.90;;;;;;5089058;28;20434;-78
2023/01/10 05:25:38;;;;;;;22.67;3.10;;;5.30;99.90;;;;;;5089522;28;20441;-78
2023/01/10 05:28:04;;;;;;;16.50;3.20;;;5.30;99.90;;;;;;5089606;28;20414;-78
2023/01/10 05:30:29;;;;;;;20.25;2.90;;;5.40;99.90;;;;;;5091724;28;20449;-78
2023/01/10 05:32:55;;;;;;;19.43;3.10;;;5.30;99.90;;;;;;5089135;28;20406;-78
2023/01/10 05:35:20;;;;;;;18.50;3.40;;;5.30;99.90;;;;;;5009257;28;1790155;-78
2023/01/10 05:37:46;;;;;;;21.57;3.37;;;5.30;99.90;;;;;;5088201;28;20402;-78
2023/01/10 05:40:12;;;;;;;17.13;3.60;;;5.30;99.90;;;;;;5088771;28;20503;-78
2023/01/10 05:42:37;;;;;;;19.13;3.60;;;5.30;99.90;;;;;;5088587;28;20430;-78
2023/01/10 05:45:04;;;;;;;19.42;3.90;;;5.30;99.90;;;;;;5090769;28;20434;-78
2023/01/10 05:47:30;;;;;;;20.95;3.67;;;5.30;99.90;;;;;;5092189;28;20390;-78
2023/01/10 05:49:55;;;;;;;20.50;3.22;;;5.30;99.90;;;;;;5088511;28;20544;-78
2023/01/10 05:52:21;;;;;;;20.40;3.33;;;5.30;99.90;;;;;;5088772;28;20916;-78
2023/01/10 05:54:46;;;;;;;18.75;3.20;;;5.30;99.90;;;;;;5089939;28;20411;-78
2023/01/10 05:57:12;;;;;;;18.37;3.03;;;5.20;99.90;;;;;;5075450;28;20401;-78
2023/01/10 05:59:38;;;;;;;15.43;3.07;;;5.20;99.90;;;;;;5090771;28;20428;-78
2023/01/10 06:02:03;;;;;;;19.20;3.10;;;5.20;99.90;;;;;;5090588;28;20544;-78
2023/01/10 06:04:29;;;;;;;16.07;2.87;;;5.20;99.90;;;;;;5091676;28;20460;-78
2023/01/10 06:06:54;;;;;;;19.10;3.77;;;5.20;99.90;;;;;;5090503;28;20984;-78
2023/01/10 06:09:20;;;;;;;16.43;3.00;;;5.30;99.90;;;;;;5090661;28;20462;-77
2023/01/10 06:11:46;;;;;;;15.80;3.00;;;5.40;99.90;;;;;;5090227;28;20413;-78
2023/01/10 06:14:11;;;;;;;14.07;3.33;;;5.40;99.90;;;;;;5072853;28;20413;-78
2023/01/10 06:16:37;;;;;;;17.40;3.20;;;5.40;99.90;;;;;;5070993;28;20398;-78
2023/01/10 06:19:02;;;;;;;14.80;2.88;;;5.40;99.90;;;;;;5091375;28;20417;-78
2023/01/10 06:21:28;;;;;;;13.50;2.65;;;5.50;99.90;;;;;;5091465;28;20485;-77
2023/01/10 06:23:54;;;;;;;16.87;2.53;;;5.50;99.90;;;;;;5090607;28;20412;-78
2023/01/10 06:26:19;;;;;;;14.05;2.80;;;5.60;99.90;;;;;;5089567;28;20815;-78
2023/01/10 06:28:45;;;;;;;14.93;2.10;;;5.60;99.90;;;;;;5090243;28;20966;-78
2023/01/10 06:31:10;;;;;;;15.02;2.47;;;5.70;99.90;;;;;;5087450;28;20410;-78
2023/01/10 06:33:37;;;;;;;15.33;2.43;;;5.70;99.90;;;;;;5070371;28;20911;-78
2023/01/10 06:36:04;;;;;;;13.50;2.60;;;5.80;99.90;;;;;;5086732;28;20440;-78
2023/01/10 06:38:29;;;;;;;14.50;2.67;;;5.80;99.90;;;;;;5070597;28;20971;-78
2023/01/10 06:40:55;;;;;;;16.67;2.57;;;5.80;99.90;;;;;;5088268;28;20433;-78
2023/01/10 06:43:20;;;;;;;14.40;2.47;;;5.80;99.90;;;;;;5089564;28;20409;-78
2023/01/10 06:45:46;;;;;;;15.67;2.70;;;5.80;99.90;;;;;;5087228;28;20507;-78
2023/01/10 06:48:11;;;;;;;12.85;2.65;;;5.80;99.90;;;;;;5087644;28;20925;-76
2023/01/10 06:50:37;;;;;;;17.27;3.47;;;5.70;99.90;;;;;;5086715;28;20406;-78
2023/01/10 06:53:03;;;;;;;11.60;3.33;;;5.70;99.90;;;;;;5088002;28;20732;-74
2023/01/10 06:55:30;;;;;;;17.75;4.40;;;5.70;99.90;;;;;;5070467;28;21016;-75
2023/01/10 06:57:56;;;;;;;17.55;3.55;;;5.60;99.90;;;;;;5089193;28;20390;-77
2023/01/10 07:00:22;;;;;;;17.98;4.25;;;5.60;99.90;;;;;;5087323;28;20421;-77
2023/01/10 07:02:48;;;;;;;20.17;4.03;;;5.50;99.90;;;;;;5088645;28;20924;-77
2023/01/10 07:05:14;;;;;;;20.92;4.20;;;5.50;99.90;;;;;;5090050;28;20430;-77
2023/01/10 07:07:39;;;;;;;19.57;4.30;;;5.40;99.90;;;;;;5080349;28;20918;-77
2023/01/10 07:10:05;;;;;;;16.00;3.80;;;5.40;99.90;;;;;;5080665;28;20452;-77
2023/01/10 07:12:31;;;;;;;17.80;3.80;;;5.30;99.90;;;;;;5086236;28;20428;-78
2023/01/10 07:14:57;;;;;;;18.92;3.55;;;5.30;99.90;;;;;;5086957;28;20421;-78
2023/01/10 07:17:22;;;;;;;15.75;4.00;;;5.20;99.90;;;;;;5087456;28;20398;-78
2023/01/10 07:19:48;;;;;;;15.73;3.70;;;5.20;99.90;;;;;;5085386;28;20459;-78
2023/01/10 07:22:13;;;;;;;18.45;3.95;;;5.10;99.90;;;;;;5075266;28;20833;-78
2023/01/10 07:24:39;;;;;;;13.33;3.60;;;5.10;99.90;;;;;;5086016;28;20429;-78
2023/01/10 07:27:04;;;;;;;18.05;3.30;;;5.10;99.90;;;;;;5062077;28;20403;-78
2023/01/10 07:29:30;;;;;;;17.00;3.57;;;5.10;99.90;;;;;;5078064;28;20417;-78
2023/01/10 07:31:56;;;;;;;17.07;3.80;;;5.10;99.90;;;;;;5085596;28;20406;-78
2023/01/10 07:34:21;;;;;;;16.83;3.78;;;5.20;99.90;;;;;;5079251;28;20799;-78
2023/01/10 07:36:47;;;;;;;15.93;3.10;;;5.20;99.90;;;;;;5085830;28;20410;-78
2023/01/10 07:39:12;;;;;;;14.07;3.25;;;5.10;99.90;;;;;;5079316;28;20974;-78
2023/01/10 07:41:38;;;;;;;18.77;3.37;;;5.20;99.90;;;;;;5077707;28;20402;-78
2023/01/10 07:44:04;;;;;;;15.97;2.63;;;5.10;99.90;;;;;;5092756;28;20425;-78
2023/01/10 07:46:29;;;;;;;14.77;3.20;;;5.20;99.90;;;;;;5089925;28;20985;-78
2023/01/10 07:48:55;;;;;;;11.50;2.70;;;5.10;99.90;;;;;;5085727;28;20467;-78
2023/01/10 07:51:20;;;;;;;15.27;3.08;;;5.20;99.90;;;;;;5088896;28;20452;-77
2023/01/10 07:53:46;;;;;;;15.43;3.60;;;5.20;99.90;;;;;;5088147;28;20428;-78
2023/01/10 07:56:12;;;;;;;13.03;3.00;;;5.30;99.90;;;;;;5085294;28;20483;-78
2023/01/10 07:58:37;;;;;;;13.02;2.90;;;5.30;99.90;;;;;;5089669;28;20401;-78
2023/01/10 08:01:05;;;;;;;16.37;3.77;;;5.30;99.90;;;;;;5085279;28;20409;-78
2023/01/10 08:03:31;;;;;;;17.13;3.10;;;5.30;99.90;;;;;;5070549;28;20792;-78
2023/01/10 08:06:03;;;;;;;14.60;3.20;;;5.40;99.90;;;;;;5085733;28;20993;-78
2023/01/10 08:08:29;;;;;;;14.80;3.80;;;5.40;99.90;;;;;;5084019;28;20995;-78
2023/01/10 08:10:55;;;;;;;16.67;3.15;;;5.40;99.90;;;;;;5083807;28;20421;-78
2023/01/10 08:13:22;;;;;;;16.17;3.47;;;5.40;99.90;;;;;;5084946;28;20437;-78
2023/01/10 08:15:51;;;;;;;15.23;3.50;;;5.40;99.90;;;;;;5084224;28;20829;-78
2023/01/10 08:18:18;;;;;;;18.45;4.00;;;5.30;99.90;;;;;;5068561;28;20421;-78
2023/01/10 08:20:46;;;;;;;21.13;4.55;;;5.40;99.90;;;;;;5089421;28;20468;-78
2023/01/10 08:23:12;;;;;;;21.93;4.13;;;5.40;99.90;;;;;;5085957;28;20413;-78
2023/01/10 08:25:38;;;;;;;16.73;3.63;;;5.40;99.90;;;;;;5073157;28;20452;-78
2023/01/10 08:28:03;;;;;;;19.02;4.07;;;5.40;99.90;;;;;;5071082;28;20448;-78
2023/01/10 08:30:29;;;;;;;21.07;4.40;;;5.40;99.90;;;;;;5093243;28;20493;-78
2023/01/10 08:32:54;;;;;;;24.25;4.47;;;5.50;99.90;;;;;;5092866;28;20406;-78
2023/01/10 08:35:20;;;;;;;19.37;4.57;;;5.50;99.90;;;;;;5094607;28;20410;-78
2023/01/10 08:37:46;;;;;;;19.17;4.07;;;5.50;99.90;;;;;;5090115;28;20394;-78
2023/01/10 08:40:12;;;;;;;26.30;5.20;;;5.60;99.90;;;;;;5095378;28;21089;-78
2023/01/10 08:42:37;;;;;;;19.55;4.82;;;5.60;99.90;;;;;;5095436;28;20764;-77
2023/01/10 08:45:04;;;;;;;22.70;5.00;;;5.60;99.90;;;;;;5089329;28;20868;-78
2023/01/10 08:47:30;;;;;;;27.10;5.22;;;5.70;99.90;;;;;;5089240;28;20408;-78
2023/01/10 08:49:55;;;;;;;24.42;4.88;;;5.70;99.90;;;;;;5091276;28;20410;-78
2023/01/10 08:52:21;;;;;;;22.97;5.23;;;5.80;99.90;;;;;;5089869;28;20410;-78
2023/01/10 08:54:47;;;;;;;30.55;5.55;;;5.80;99.90;;;;;;5094205;28;20409;-78
2023/01/10 08:57:13;;;;;;;24.70;5.53;;;5.90;99.90;;;;;;5091217;28;20410;-78
2023/01/10 08:59:38;;;;;;;24.80;5.43;;;5.90;99.90;;;;;;5086900;28;20422;-78
2023/01/10 09:02:04;;;;;;;20.70;4.97;;;6.00;99.90;;;;;;5088782;28;20490;-78
2023/01/10 09:04:30;;;;;;;27.52;5.78;;;6.00;99.90;;;;;;5091777;28;20414;-78
2023/01/10 09:06:56;;;;;;;22.55;5.05;;;6.00;99.90;;;;;;5087482;28;20484;-78
2023/01/10 09:09:22;;;;;;;26.30;5.03;;;6.10;99.90;;;;;;5089184;28;20874;-78
2023/01/10 09:11:48;;;;;;;28.25;5.50;;;6.10;99.90;;;;;;5087415;28;20462;-78
2023/01/10 09:14:14;;;;;;;27.75;5.10;;;6.10;99.90;;;;;;5088470;28;20429;-78
2023/01/10 09:16:40;;;;;;;22.80;4.68;;;6.10;99.90;;;;;;5089839;28;20489;-78
2023/01/10 09:19:06;;;;;;;26.38;5.88;;;6.20;99.90;;;;;;5089904;28;20497;-75
2023/01/10 09:21:31;;;;;;;24.77;5.67;;;6.30;99.90;;;;;;5089683;28;20397;-77
2023/01/10 09:23:57;;;;;;;26.88;4.75;;;6.30;99.90;;;;;;5088090;28;20512;-77
2023/01/10 09:26:22;;;;;;;26.90;4.40;;;6.30;99.90;;;;;;5090511;28;20394;-78
2023/01/10 09:28:48;;;;;;;24.10;5.13;;;6.40;99.90;;;;;;5088669;28;20505;-77
2023/01/10 09:31:14;;;;;;;21.15;4.20;;;6.40;99.90;;;;;;5090757;28;20399;-77
2023/01/10 09:33:43;;;;;;;23.43;4.60;;;6.40;99.90;;;;;;5089518;28;20432;-77
2023/01/10 09:36:09;;;;;;;26.50;4.67;;;6.40;99.90;;;;;;5089445;28;20414;-77
2023/01/10 09:38:35;;;;;;;24.08;4.72;;;6.50;99.90;;;;;;5088500;28;20924;-77
2023/01/10 09:41:46;;;;;;;24.20;4.97;;;6.60;99.90;;;;;;5087222;28;20425;-77
2023/01/10 09:44:49;;;;;;;26.60;5.20;;;6.70;99.90;;;;;;5087198;28;20434;-77
2023/01/10 09:47:32;;;;;;;26.00;5.28;;;6.70;99.90;;;;;;5087463;28;20931;-77
2023/01/10 09:50:22;;;;;;;22.45;4.30;;;6.80;99.90;;;;;;5089362;28;20430;-77
2023/01/10 09:53:22;;;;;;;24.63;3.97;;;6.80;99.90;;;;;;5083570;28;20413;-77
2023/01/10 09:55:52;;;;;;;25.60;4.07;;;6.80;99.90;;;;;;5036765;28;20426;-77
2023/01/10 09:58:20;;;;;;;19.92;3.67;;;6.80;99.90;;;;;;5085839;28;20504;-78
2023/01/10 10:00:51;;;;;;;24.20;3.83;;;6.80;99.90;;;;;;5087843;28;20406;-77
2023/01/10 10:03:24;;;;;;;22.77;3.85;;;6.90;99.90;;;;;;5067299;28;20506;-77
2023/01/10 10:05:50;;;;;;;18.40;3.83;;;6.90;99.90;;;;;;5086863;28;20826;-77
2023/01/10 10:08:18;;;;;;;18.00;3.60;;;6.90;99.90;;;;;;5087561;28;20426;-78
2023/01/10 10:11:09;;;;;;;19.43;3.60;;;6.90;99.90;;;;;;5068618;28;20416;-77
2023/01/10 10:14:09;;;;;;;17.65;3.95;;;6.90;99.90;;;;;;5077694;28;20407;-77
2023/01/10 10:16:58;;;;;;;20.75;3.63;;;6.90;99.90;;;;;;5049102;28;20411;-77
2023/01/10 10:19:56;;;;;;;19.63;4.37;;;6.90;99.90;;;;;;5087437;28;20414;-77
2023/01/10 10:22:31;;;;;;;19.45;3.90;;;6.90;99.90;;;;;;5084982;28;20446;-78
2023/01/10 10:25:22;;;;;;;20.98;3.70;;;6.90;99.90;;;;;;5086016;28;20461;-78
2023/01/10 10:28:06;;;;;;;18.90;3.90;;;7.00;99.90;;;;;;5079228;28;20441;-77
2023/01/10 10:30:34;;;;;;;19.77;4.03;;;7.00;99.90;;;;;;5089445;28;20507;-76
2023/01/10 10:33:00;;;;;;;14.40;4.10;;;7.10;99.90;;;;;;5087844;28;20966;-75
2023/01/10 10:35:31;;;;;;;21.67;4.30;;;7.10;99.90;;;;;;5087870;28;20430;-76
2023/01/10 10:38:21;;;;;;;22.80;4.00;;;7.10;99.90;;;;;;5068710;28;21048;-77
2023/01/10 10:40:48;;;;;;;16.98;3.97;;;7.20;99.90;;;;;;5060413;28;20433;-77
2023/01/10 10:43:29;;;;;;;21.30;4.05;;;7.20;99.90;;;;;;5086218;28;20454;-77
2023/01/10 10:46:09;;;;;;;22.27;4.18;;;7.10;99.90;;;;;;5067190;28;20441;-77
2023/01/10 10:48:49;;;;;;;19.93;4.00;;;7.10;99.90;;;;;;5089532;28;20439;-77
2023/01/10 10:51:22;;;;;;;20.73;3.88;;;7.10;99.90;;;;;;5087689;28;20402;-77
2023/01/10 10:53:48;;;;;;;21.10;4.45;;;7.20;99.90;;;;;;5087341;28;20432;-77
2023/01/10 10:56:18;;;;;;;26.67;5.03;;;7.20;99.90;;;;;;5089238;28;20410;-77
2023/01/10 10:58:48;;;;;;;27.23;4.72;;;7.20;99.90;;;;;;5089669;28;20759;-77
2023/01/10 11:01:16;;;;;;;23.03;4.83;;;7.20;99.90;;;;;;5089320;28;20915;-77
2023/01/10 11:03:44;;;;;;;23.77;4.50;;;7.20;99.90;;;;;;5083617;28;20406;-77
2023/01/10 11:06:11;;;;;;;20.10;3.80;;;7.20;99.90;;;;;;5089353;28;20430;-77
2023/01/10 11:08:42;;;;;;;24.37;4.43;;;7.20;99.90;;;;;;5088257;28;20406;-77
2023/01/10 11:11:39;;;;;;;22.10;4.47;;;7.20;99.90;;;;;;5067681;28;20414;-77
2023/01/10 11:14:07;;;;;;;22.23;4.32;;;7.30;99.90;;;;;;5078573;28;20962;-77
2023/01/10 11:16:39;;;;;;;20.08;4.10;;;7.20;99.90;;;;;;5086610;28;20429;-77
2023/01/10 11:19:25;;;;;;;16.17;3.72;;;7.20;99.90;;;;;;5088021;28;20485;-78
2023/01/10 11:22:02;;;;;;;17.38;3.63;;;7.20;99.90;;;;;;5077876;28;20981;-77
2023/01/10 11:24:30;;;;;;;21.08;4.45;;;7.30;99.90;;;;;;5086792;28;20469;-78
2023/01/10 11:26:58;;;;;;;20.70;3.83;;;7.30;99.90;;;;;;5088842;28;20413;-78
2023/01/10 11:29:34;;;;;;;18.75;3.78;;;7.30;99.90;;;;;;5084224;28;20433;-77
2023/01/10 11:32:08;;;;;;;19.83;4.47;;;7.30;99.90;;;;;;5085208;28;20504;-78
2023/01/10 11:34:36;;;;;;;18.25;4.05;;;7.30;99.90;;;;;;5088426;28;20498;-77
2023/01/10 11:37:19;;;;;;;20.52;4.20;;;7.30;99.90;;;;;;5087997;28;20421;-77
2023/01/10 11:39:44;;;;;;;23.33;4.68;;;7.30;99.90;;;;;;5082881;28;20442;-77
2023/01/10 11:42:30;;;;;;;18.07;4.07;;;7.30;99.90;;;;;;5088084;28;20401;-77
2023/01/10 11:45:18;;;;;;;14.98;3.70;;;7.30;99.90;;;;;;5087294;28;20552;-77
2023/01/10 11:48:04;;;;;;;21.30;4.20;;;7.30;99.90;;;;;;5087155;28;20402;-77
2023/01/10 11:50:34;;;;;;;18.77;4.20;;;7.30;99.90;;;;;;5056951;28;20981;-77
2023/01/10 11:53:00;;;;;;;27.33;5.10;;;7.30;99.90;;;;;;5086724;28;20418;-77
2023/01/10 11:55:30;;;;;;;21.20;5.63;;;7.40;99.90;;;;;;5083283;28;20923;-77
2023/01/10 11:58:04;;;;;;;21.75;4.93;;;7.40;99.90;;;;;;5082622;28;20397;-77
2023/01/10 12:00:42;;;;;;;21.20;5.47;;;7.40;99.90;;;;;;5074020;28;20880;-79
2023/01/10 12:03:41;;;;;;;22.98;5.10;;;7.40;99.90;;;;;;5086390;28;20415;-77
2023/01/10 12:06:13;;;;;;;24.00;5.90;;;7.40;99.90;;;;;;5089745;28;20818;-79
2023/01/10 12:08:43;;;;;;;24.30;6.50;;;7.40;99.90;;;;;;5070141;28;20448;-77
2023/01/10 12:11:12;;;;;;;27.02;7.03;;;7.40;99.90;;;;;;5073900;28;20509;-77
2023/01/10 12:13:56;;;;;;;24.23;6.90;;;7.40;99.90;;;;;;5090622;28;20465;-77
2023/01/10 12:16:26;;;;;;;26.42;7.00;;;7.40;99.90;;;;;;5093716;28;20433;-77
2023/01/10 12:18:59;;;;;;;28.00;7.13;;;7.40;99.90;;;;;;5088100;28;20429;-77
2023/01/10 12:21:41;;;;;;;30.20;7.70;;;7.40;99.90;;;;;;5092177;28;20470;-77
2023/01/10 12:24:23;;;;;;;27.23;8.27;;;7.40;99.90;;;;;;5093490;28;20474;-77
2023/01/10 12:26:52;;;;;;;28.23;8.40;;;7.40;99.90;;;;;;5093929;28;20402;-77
2023/01/10 12:29:26;;;;;;;24.93;8.67;;;7.40;99.90;;;;;;5092338;28;20449;-77
2023/01/10 12:31:54;;;;;;;29.50;9.07;;;7.40;99.90;;;;;;5076964;28;20493;-77
2023/01/10 12:34:24;;;;;;;25.58;8.63;;;7.40;99.90;;;;;;5080497;28;20415;-77
2023/01/10 12:37:04;;;;;;;23.95;8.48;;;7.40;99.90;;;;;;5097643;28;20760;-78
2023/01/10 12:39:35;;;;;;;25.27;8.60;;;7.40;99.90;;;;;;5079777;28;20406;-77
2023/01/10 12:44:54;;;;;;;20.08;7.32;;;7.50;99.90;;;;;;5091661;28;20441;-77
2023/01/10 12:48:11;;;;;;;23.33;6.63;;;7.40;99.90;;;;;;5101489;28;20906;-77
2023/01/10 12:50:52;;;;;;;24.50;7.25;;;7.40;99.90;;;;;;5048660;28;20478;-77
2023/01/10 12:53:39;;;;;;;24.13;6.87;;;7.40;99.90;;;;;;5091376;28;20419;-77
2023/01/10 12:56:11;;;;;;;23.80;6.35;;;7.40;99.90;;;;;;5095346;28;20449;-77
2023/01/10 12:58:47;;;;;;;25.60;6.50;;;7.40;99.90;;;;;;5088909;28;20425;-77
2023/01/10 13:01:16;;;;;;;24.92;6.30;;;7.40;99.90;;;;;;5085318;28;20775;-77
2023/01/10 13:03:44;;;;;;;24.50;5.93;;;7.30;99.90;;;;;;5091372;28;20481;-77
2023/01/10 13:06:21;;;;;;;24.63;6.60;;;7.30;99.90;;;;;;5092493;28;20477;-77
2023/01/10 13:08:47;;;;;;;27.15;6.40;;;7.30;99.90;;;;;;5089406;28;20955;-77
2023/01/10 13:11:17;;;;;;;24.40;6.67;;;7.30;99.90;;;;;;5093567;28;20753;-77
2023/01/10 13:13:51;;;;;;;25.52;6.30;;;7.30;99.90;;;;;;5090376;28;20390;-77
2023/01/10 13:16:28;;;;;;;22.92;5.88;;;7.30;99.90;;;;;;5091988;28;20431;-77
2023/01/10 13:19:09;;;;;;;18.95;5.45;;;7.30;99.90;;;;;;5081550;28;20821;-77